createdAt,value
2023-03-17T00:01:06.639Z,62.08
2023-03-17T00:04:13.248Z,61.90
2023-03-17T00:07:18.468Z,62.11
2023-03-17T00:10:24.029Z,61.90
2023-03-17T00:13:28.993Z,62.00
2023-03-17T00:16:36.221Z,62.14
2023-03-17T00:19:40.448Z,62.06
2023-03-17T00:22:45.714Z,62.16
2023-03-17T00:25:50.013Z,62.15
2023-03-17T00:28:54.571Z,62.31
2023-03-17T00:32:00.010Z,62.15
2023-03-17T00:35:07.131Z,62.10
2023-03-17T00:38:16.240Z,62.12
2023-03-17T00:41:20.726Z,62.16
2023-03-17T00:44:25.656Z,62.22
2023-03-17T00:47:30.085Z,62.23
2023-03-17T00:50:34.300Z,62.28
2023-03-17T00:53:38.525Z,62.37
2023-03-17T00:56:43.961Z,62.43
2023-03-17T00:59:48.078Z,62.54
2023-03-17T01:02:52.709Z,62.61
2023-03-17T01:05:57.980Z,62.66
2023-03-17T01:09:02.375Z,62.72
2023-03-17T01:12:08.043Z,62.77
2023-03-17T01:15:13.073Z,62.65
2023-03-17T01:18:18.270Z,62.79
2023-03-17T01:21:22.652Z,63.05
2023-03-17T01:24:27.356Z,63.09
2023-03-17T01:27:35.091Z,62.88
2023-03-17T01:30:40.118Z,62.92
2023-03-17T01:33:45.032Z,63.15
2023-03-17T01:36:50.376Z,63.21
2023-03-17T01:39:54.900Z,63.23
2023-03-17T01:43:03.389Z,63.27
2023-03-17T01:46:27.831Z,63.24
2023-03-17T01:49:35.171Z,63.25
2023-03-17T01:52:40.161Z,63.16
2023-03-17T01:55:45.750Z,63.37
2023-03-17T01:58:51.604Z,63.41
2023-03-17T02:01:57.909Z,63.72
2023-03-17T02:05:02.849Z,63.59
2023-03-17T02:08:12.413Z,63.47
2023-03-17T02:11:17.223Z,63.42
2023-03-17T02:14:21.627Z,63.45
2023-03-17T02:17:26.805Z,63.71
2023-03-17T02:21:02.925Z,63.80
2023-03-17T02:24:09.833Z,63.89
2023-03-17T02:27:15.570Z,63.85
2023-03-17T02:30:21.261Z,63.87
2023-03-17T02:33:25.368Z,63.88
2023-03-17T02:36:29.824Z,64.01
2023-03-17T02:39:34.012Z,64.13
2023-03-17T02:42:39.466Z,64.32
2023-03-17T02:45:43.831Z,64.30
2023-03-17T02:48:48.628Z,64.03
2023-03-17T02:51:53.028Z,64.16
2023-03-17T02:54:57.124Z,64.22
2023-03-17T02:58:02.690Z,64.16
2023-03-17T03:01:06.929Z,64.42
2023-03-17T03:04:11.938Z,64.36
2023-03-17T03:07:16.371Z,64.18
2023-03-17T03:10:21.624Z,64.22
2023-03-17T03:13:26.445Z,64.31
2023-03-17T03:16:30.668Z,64.42
2023-03-17T03:19:34.902Z,64.52
2023-03-17T03:22:39.049Z,64.56
2023-03-17T03:25:43.318Z,64.79
2023-03-17T03:28:47.536Z,64.94
2023-03-17T03:31:51.874Z,64.95
2023-03-17T03:34:57.070Z,64.74
2023-03-17T03:38:01.643Z,64.92
2023-03-17T03:41:06.561Z,65.10
2023-03-17T03:44:10.781Z,65.10
2023-03-17T03:47:14.998Z,65.18
2023-03-17T03:50:19.416Z,65.25
2023-03-17T03:53:23.636Z,65.12
2023-03-17T03:56:28.075Z,65.14
2023-03-17T03:59:32.273Z,65.32
2023-03-17T04:02:36.607Z,65.44
2023-03-17T04:05:41.054Z,65.50
2023-03-17T04:08:45.893Z,65.62
2023-03-17T04:11:50.174Z,65.62
2023-03-17T04:14:54.310Z,65.65
2023-03-17T04:17:58.512Z,65.67
2023-03-17T04:21:02.691Z,65.51
2023-03-17T04:24:08.060Z,65.77
2023-03-17T04:27:12.600Z,65.61
2023-03-17T04:30:17.168Z,65.80
2023-03-17T04:33:21.631Z,65.91
2023-03-17T04:36:26.198Z,66.10
2023-03-17T04:39:30.385Z,65.93
2023-03-17T04:42:34.548Z,66.05
2023-03-17T04:45:39.097Z,66.18
2023-03-17T04:48:43.257Z,66.09
2023-03-17T04:51:47.566Z,66.13
2023-03-17T04:54:51.801Z,66.29
2023-03-17T04:57:56.005Z,66.19
2023-03-17T05:01:00.758Z,66.32
2023-03-17T05:04:05.363Z,66.40
2023-03-17T05:07:09.677Z,66.41
2023-03-17T05:10:14.616Z,66.30
2023-03-17T05:13:19.112Z,66.25
2023-03-17T05:16:23.732Z,66.22
2023-03-17T05:19:28.422Z,66.35
2023-03-17T05:22:32.618Z,66.31
2023-03-17T05:25:36.788Z,66.20
2023-03-17T05:28:41.052Z,66.28
2023-03-17T05:31:45.297Z,66.38
2023-03-17T05:34:50.102Z,66.47
2023-03-17T05:37:54.423Z,66.56
2023-03-17T05:40:59.171Z,66.62
2023-03-17T05:44:03.474Z,66.69
2023-03-17T05:47:08.546Z,66.57
2023-03-17T05:50:14.163Z,66.69
2023-03-17T05:53:18.896Z,66.96
2023-03-17T05:56:23.420Z,67.01
2023-03-17T05:59:27.947Z,66.95
2023-03-17T06:02:32.307Z,67.06
2023-03-17T06:05:36.900Z,67.15
2023-03-17T06:08:41.612Z,67.21
2023-03-17T06:11:46.052Z,67.26
2023-03-17T06:14:50.472Z,67.47
2023-03-17T06:17:54.592Z,67.44
2023-03-17T06:20:58.808Z,67.57
2023-03-17T06:24:03.116Z,67.60
2023-03-17T06:27:07.316Z,67.89
2023-03-17T06:30:12.715Z,67.94
2023-03-17T06:33:18.296Z,67.95
2023-03-17T06:36:22.555Z,68.10
2023-03-17T06:39:26.884Z,68.02
2023-03-17T06:42:31.620Z,68.05
2023-03-17T06:45:35.738Z,68.35
2023-03-17T06:48:40.089Z,68.39
2023-03-17T06:51:44.263Z,68.60
2023-03-17T06:54:48.511Z,68.56
2023-03-17T06:57:52.706Z,68.56
2023-03-17T07:00:57.534Z,68.55
2023-03-17T07:04:01.698Z,68.66
2023-03-17T07:07:06.416Z,68.51
2023-03-17T07:10:13.803Z,68.47
2023-03-17T07:13:18.408Z,68.68
2023-03-17T07:16:22.692Z,68.48
2023-03-17T07:19:27.347Z,68.44
2023-03-17T07:22:31.535Z,68.43
2023-03-17T07:25:36.883Z,68.54
2023-03-17T07:28:41.394Z,68.71
2023-03-17T07:31:45.729Z,68.88
2023-03-17T07:34:50.039Z,68.94
2023-03-17T07:37:54.416Z,69.02
2023-03-17T07:40:58.618Z,68.86
2023-03-17T07:44:04.108Z,68.77
2023-03-17T07:47:08.480Z,68.55
2023-03-17T07:50:14.131Z,68.58
2023-03-17T07:53:18.784Z,68.47
2023-03-17T07:56:23.386Z,68.44
2023-03-17T07:59:27.833Z,68.29
2023-03-17T08:02:33.020Z,68.15
2023-03-17T08:05:37.267Z,68.06
2023-03-17T08:08:41.491Z,67.95
2023-03-17T08:11:45.733Z,67.80
2023-03-17T08:14:50.392Z,67.50
2023-03-17T08:17:54.907Z,67.22
2023-03-17T08:20:59.091Z,66.91
2023-03-17T08:24:04.627Z,66.52
2023-03-17T08:27:09.038Z,66.42
2023-03-17T08:30:14.143Z,66.25
2023-03-17T08:33:18.483Z,66.03
2023-03-17T08:36:22.732Z,65.71
2023-03-17T08:39:26.964Z,65.81
2023-03-17T08:42:31.271Z,65.49
2023-03-17T08:45:35.447Z,65.30
2023-03-17T08:48:40.018Z,65.04
2023-03-17T08:51:44.916Z,64.89
2023-03-17T08:54:49.189Z,64.80
2023-03-17T08:57:53.403Z,64.41
2023-03-17T09:01:00.613Z,64.21
2023-03-17T09:08:08.449Z,63.59
2023-03-17T09:11:14.975Z,63.36
2023-03-17T09:14:19.197Z,63.21
2023-03-17T09:17:23.412Z,62.98
2023-03-17T09:20:27.738Z,62.76
2023-03-17T09:23:32.367Z,62.63
2023-03-17T09:26:36.565Z,62.57
2023-03-17T09:29:41.364Z,62.51
2023-03-17T09:32:46.208Z,62.04
2023-03-17T09:35:52.736Z,61.81
2023-03-17T09:38:56.941Z,61.44
2023-03-17T09:42:08.531Z,61.35
2023-03-17T09:45:17.589Z,61.16
2023-03-17T09:48:35.294Z,60.71
2023-03-17T09:51:40.023Z,60.72
2023-03-17T09:54:46.599Z,60.36
2023-03-17T09:57:53.065Z,60.62
2023-03-17T10:00:57.284Z,60.26
2023-03-17T10:04:02.771Z,59.90
2023-03-17T10:07:07.255Z,59.55
2023-03-17T10:10:15.936Z,59.56
2023-03-17T10:13:26.649Z,59.39
2023-03-17T10:16:35.496Z,59.07
2023-03-17T10:19:42.461Z,58.59
2023-03-17T10:22:49.375Z,58.79
2023-03-17T10:25:53.988Z,58.61
2023-03-17T10:28:59.865Z,58.31
2023-03-17T10:32:04.558Z,58.05
2023-03-17T10:35:10.924Z,57.85
2023-03-17T10:38:17.905Z,57.41
2023-03-17T10:41:22.445Z,57.04
2023-03-17T10:44:41.389Z,56.91
2023-03-17T10:47:48.591Z,56.49
2023-03-17T10:50:54.338Z,56.48
2023-03-17T10:54:00.656Z,56.33
2023-03-17T10:57:08.339Z,56.07
2023-03-17T11:00:16.920Z,55.93
2023-03-17T11:03:24.692Z,55.62
2023-03-17T11:06:36.566Z,55.42
2023-03-17T11:09:41.361Z,55.21
2023-03-17T11:12:46.058Z,54.76
2023-03-17T11:15:54.497Z,54.90
2023-03-17T11:19:00.771Z,54.94
2023-03-17T11:22:10.040Z,54.36
2023-03-17T11:25:16.459Z,53.92
2023-03-17T11:28:22.234Z,53.81
2023-03-17T11:31:32.240Z,53.04
2023-03-17T11:34:49.311Z,53.25
2023-03-17T11:38:07.234Z,53.32
2023-03-17T11:41:17.337Z,53.44
2023-03-17T11:44:38.651Z,53.15
2023-03-17T11:47:55.405Z,52.65
2023-03-17T11:51:03.650Z,52.36
2023-03-17T11:54:12.113Z,52.35
2023-03-17T11:57:19.876Z,51.75
2023-03-17T12:00:27.695Z,51.48
2023-03-17T12:03:38.914Z,51.45
2023-03-17T12:06:46.595Z,51.06
2023-03-17T12:09:55.890Z,51.07
2023-03-17T12:13:01.352Z,50.59
2023-03-17T12:16:09.475Z,50.54
2023-03-17T12:19:16.653Z,50.35
2023-03-17T12:22:23.697Z,50.18
2023-03-17T12:25:32.815Z,50.09
2023-03-17T12:28:40.011Z,50.16
2023-03-17T12:31:45.739Z,50.01
2023-03-17T12:34:53.631Z,49.64
2023-03-17T12:38:00.678Z,49.34
2023-03-17T12:41:18.336Z,48.72
2023-03-17T12:44:30.922Z,48.90
2023-03-17T12:47:49.175Z,48.73
2023-03-17T12:51:08.493Z,47.81
2023-03-17T12:54:16.541Z,47.85
2023-03-17T12:57:22.304Z,47.35
2023-03-17T13:00:29.700Z,47.33
2023-03-17T13:03:37.115Z,47.09
2023-03-17T13:06:43.164Z,46.94
2023-03-17T13:09:49.921Z,46.78
2023-03-17T13:13:01.829Z,46.67
2023-03-17T13:16:06.973Z,46.46
2023-03-17T13:19:16.361Z,46.61
2023-03-17T13:22:35.583Z,46.00
2023-03-17T13:25:50.005Z,45.77
2023-03-17T13:28:54.360Z,45.74
2023-03-17T13:32:11.995Z,45.65
2023-03-17T13:35:20.692Z,45.63
2023-03-17T13:38:32.922Z,45.51
2023-03-17T13:41:42.493Z,45.06
2023-03-17T13:45:01.586Z,44.70
2023-03-17T13:48:23.058Z,44.61
2023-03-17T13:51:28.432Z,44.83
2023-03-17T13:54:34.286Z,44.23
2023-03-17T13:57:39.298Z,44.16
2023-03-17T14:00:45.661Z,43.97
2023-03-17T14:03:54.148Z,43.58
2023-03-17T14:07:01.005Z,43.55
2023-03-17T14:10:05.748Z,43.48
2023-03-17T14:13:18.313Z,42.98
2023-03-17T14:16:26.026Z,42.82
2023-03-17T14:19:31.275Z,42.86
2023-03-17T14:22:40.037Z,42.65
2023-03-17T14:25:45.788Z,42.42
2023-03-17T14:28:50.053Z,42.16
2023-03-17T14:32:02.235Z,42.15
2023-03-17T14:35:07.149Z,42.03
2023-03-17T14:38:18.803Z,41.88
2023-03-17T14:41:24.238Z,41.74
2023-03-17T14:44:28.398Z,42.03
2023-03-17T14:47:34.689Z,41.98
2023-03-17T14:50:38.833Z,41.78
2023-03-17T14:53:46.504Z,41.45
2023-03-17T14:56:53.321Z,41.29
2023-03-17T14:59:59.254Z,41.39
2023-03-17T15:03:05.446Z,41.30
2023-03-17T15:06:23.538Z,41.38
2023-03-17T15:09:28.678Z,41.22
2023-03-17T15:12:33.060Z,41.20
2023-03-17T15:15:39.026Z,41.15
2023-03-17T15:18:43.525Z,41.07
2023-03-17T15:21:48.260Z,40.94
2023-03-17T15:25:00.255Z,40.90
2023-03-17T15:28:11.399Z,40.82
2023-03-17T15:31:15.634Z,40.71
2023-03-17T15:34:19.796Z,40.66
2023-03-17T15:37:26.145Z,40.77
2023-03-17T15:40:30.644Z,40.74
2023-03-17T15:43:34.938Z,40.60
2023-03-17T15:46:39.053Z,40.57
2023-03-17T15:49:43.435Z,40.58
2023-03-17T15:52:47.749Z,40.58
2023-03-17T15:55:52.061Z,40.51
2023-03-17T15:58:56.601Z,40.61
2023-03-17T16:02:00.785Z,40.61
2023-03-17T16:05:13.602Z,40.64
2023-03-17T16:08:19.096Z,40.65
2023-03-17T16:11:28.590Z,40.52
2023-03-17T16:14:33.348Z,40.47
2023-03-17T16:17:37.493Z,40.68
2023-03-17T16:20:42.906Z,40.59
2023-03-17T16:23:47.167Z,40.64
2023-03-17T16:26:51.761Z,40.56
2023-03-17T16:29:56.041Z,40.60
2023-03-17T16:33:02.268Z,40.54
2023-03-17T16:36:07.102Z,40.53
2023-03-17T16:39:15.543Z,40.68
2023-03-17T16:42:22.500Z,40.70
2023-03-17T16:45:29.122Z,40.77
2023-03-17T16:48:33.274Z,40.70
2023-03-17T16:51:37.590Z,40.85
2023-03-17T16:54:41.684Z,40.83
2023-03-17T16:57:47.535Z,40.91
2023-03-17T17:00:53.730Z,41.03
2023-03-17T17:03:58.052Z,41.12
2023-03-17T17:07:02.177Z,41.19
2023-03-17T17:10:07.431Z,41.27
2023-03-17T17:13:13.190Z,41.31
2023-03-17T17:16:22.214Z,41.28
2023-03-17T17:19:26.383Z,41.29
2023-03-17T17:22:30.787Z,41.60
2023-03-17T17:25:34.956Z,41.52
2023-03-17T17:28:40.513Z,41.64
2023-03-17T17:31:44.843Z,41.74
2023-03-17T17:34:49.148Z,41.91
2023-03-17T17:37:53.476Z,41.90
2023-03-17T17:40:58.650Z,42.07
2023-03-17T17:44:03.235Z,42.17
2023-03-17T17:47:08.260Z,42.25
2023-03-17T17:50:14.456Z,42.22
2023-03-17T17:53:18.653Z,42.36
2023-03-17T17:56:22.813Z,42.43
2023-03-17T17:59:27.499Z,42.46
2023-03-17T18:02:31.705Z,42.49
2023-03-17T18:05:36.212Z,42.60
2023-03-17T18:08:40.911Z,42.68
2023-03-17T18:11:45.498Z,42.65
2023-03-17T18:14:49.713Z,42.73
2023-03-17T18:17:54.358Z,42.95
2023-03-17T18:20:59.276Z,42.99
2023-03-17T18:24:04.961Z,43.19
2023-03-17T18:27:09.564Z,43.32
2023-03-17T18:30:15.788Z,43.51
2023-03-17T18:33:20.782Z,43.57
2023-03-17T18:36:25.287Z,43.65
2023-03-17T18:39:29.833Z,43.63
2023-03-17T18:42:34.257Z,43.60
2023-03-17T18:45:38.491Z,43.76
2023-03-17T18:48:42.774Z,43.79
2023-03-17T18:51:46.942Z,43.90
2023-03-17T18:54:51.619Z,43.99
2023-03-17T18:57:55.939Z,43.94
2023-03-17T19:01:01.652Z,44.12
2023-03-17T19:04:06.668Z,44.28
2023-03-17T19:07:10.778Z,44.27
2023-03-17T19:10:15.616Z,44.26
2023-03-17T19:13:19.716Z,44.28
2023-03-17T19:16:29.323Z,44.52
2023-03-17T19:19:34.585Z,44.39
2023-03-17T19:22:39.003Z,44.75
2023-03-17T19:25:43.221Z,45.01
2023-03-17T19:28:47.645Z,45.33
2023-03-17T19:31:52.352Z,45.48
2023-03-17T19:34:56.707Z,45.55
2023-03-17T19:38:01.426Z,45.72
2023-03-17T19:41:06.855Z,45.73
2023-03-17T19:44:11.111Z,45.85
2023-03-17T19:47:15.313Z,45.98
2023-03-17T19:50:20.562Z,46.14
2023-03-17T19:53:24.773Z,46.10
2023-03-17T19:56:28.867Z,46.35
2023-03-17T19:59:33.101Z,46.37
2023-03-17T20:02:37.539Z,46.53
2023-03-17T20:05:41.990Z,46.75
2023-03-17T20:08:46.184Z,46.83
2023-03-17T20:11:52.645Z,46.88
2023-03-17T20:14:56.768Z,47.06
2023-03-17T20:18:00.957Z,47.25
2023-03-17T20:21:07.819Z,47.36
2023-03-17T20:24:14.702Z,47.50
2023-03-17T20:27:20.493Z,47.57
2023-03-17T20:30:24.723Z,47.66
2023-03-17T20:33:29.032Z,47.76
2023-03-17T20:36:33.256Z,47.91
2023-03-17T20:39:38.053Z,48.00
2023-03-17T20:42:42.368Z,48.08
2023-03-17T20:45:46.827Z,48.13
2023-03-17T20:48:52.210Z,48.30
2023-03-17T20:51:56.316Z,48.46
2023-03-17T20:55:00.576Z,48.62
2023-03-17T20:58:04.929Z,48.70
2023-03-17T21:01:10.145Z,48.77
2023-03-17T21:04:16.235Z,48.87
2023-03-17T21:07:22.279Z,48.79
2023-03-17T21:10:26.421Z,48.83
2023-03-17T21:13:30.932Z,48.95
2023-03-17T21:16:35.663Z,49.08
2023-03-17T21:19:39.988Z,49.21
2023-03-17T21:22:44.308Z,49.44
2023-03-17T21:25:48.409Z,49.47
2023-03-17T21:28:52.956Z,49.36
2023-03-17T21:31:58.309Z,49.51
2023-03-17T21:35:02.996Z,49.84
2023-03-17T21:38:07.246Z,50.03
2023-03-17T21:41:21.406Z,50.02
2023-03-17T21:44:25.815Z,50.17
2023-03-17T21:47:30.854Z,50.22
2023-03-17T21:50:35.390Z,50.38
2023-03-17T21:53:39.624Z,50.55
2023-03-17T21:56:43.762Z,50.77
2023-03-17T21:59:48.335Z,51.00
2023-03-17T22:02:53.572Z,50.93
2023-03-17T22:05:58.831Z,50.97
2023-03-17T22:09:04.449Z,51.04
2023-03-17T22:12:08.853Z,51.18
2023-03-17T22:15:13.740Z,51.33
2023-03-17T22:18:19.376Z,51.54
2023-03-17T22:21:23.811Z,51.50
2023-03-17T22:24:28.233Z,51.54
2023-03-17T22:27:33.600Z,51.52
2023-03-17T22:30:39.714Z,51.64
2023-03-17T22:33:44.278Z,51.84
2023-03-17T22:36:48.493Z,51.91
2023-03-17T22:39:53.110Z,51.90
2023-03-17T22:42:58.226Z,51.82
2023-03-17T22:46:02.452Z,52.03
2023-03-17T22:49:06.826Z,52.13
2023-03-17T22:52:11.255Z,52.31
2023-03-17T22:55:15.787Z,52.21
2023-03-17T22:58:19.965Z,52.28
2023-03-17T23:01:25.978Z,52.44
2023-03-17T23:04:30.168Z,52.62
2023-03-17T23:07:47.839Z,52.76
2023-03-17T23:10:55.068Z,52.74
2023-03-17T23:13:59.389Z,52.89
2023-03-17T23:17:03.715Z,52.99
2023-03-17T23:20:08.900Z,52.97
2023-03-17T23:23:13.504Z,52.99
2023-03-17T23:26:18.073Z,53.07
2023-03-17T23:29:22.954Z,53.26
2023-03-17T23:32:27.152Z,53.49
2023-03-17T23:35:31.795Z,53.51
2023-03-17T23:38:36.731Z,53.57
2023-03-17T23:41:41.944Z,53.65
2023-03-17T23:44:46.200Z,53.60
2023-03-17T23:47:51.722Z,53.72
2023-03-17T23:50:55.941Z,53.95
2023-03-17T23:54:00.398Z,54.01
2023-03-17T23:57:04.912Z,53.99
